Terminal Aerodrome Forecast
Issued by NWS Cleveland, OH

Home | Current Version | Previous Version | Text Only | Print | Product List | Glossary On
Versions: 1 2 3 4 5 6 7 8 9 10 11 12 13 14 15 16
000
FTUS41 KCLE 290541
TAFERI
TAF
KERI 290541Z 2906/3006 17007KT 5SM -SHRA OVC060
     FM291100 VRB03KT P6SM VCSH OVC015
     FM291500 02005KT P6SM -SHRA OVC010
     FM292200 VRB03KT P6SM OVC015
     FM300200 06006KT P6SM OVC025=

USA.gov is the U.S. government's official web portal to all federal, state and local government web resources and services.